To NAV CANADA Home Page Login to a new session Search on AWWS site Feedback and Comments Disclaimer Vers la page française équivalente Tips FAQ What's new on the site To the Forecasts and Observations / NOTAM section To "File a Flight Plan" website Publications and other links Update of the User's profile FIC Telephone Numbers My Weather Data Folder Route Weather Data Regional Weather Data Local Weather Data To the Forecasts and Observations / NOTAM section
Request Generated 04/30/2017 at 04:59:56 UTC . Weather information available at that time is displayed.

METAR/TAF

KINDERSLEY/KINDERSLEY REGIONAL/SK    

METAR CYKY 300400Z 19003KT 15SM SCT020 BKN240 04/03 A2996 RMK SC3CI3
SLP166=
SPECI CYKY 300325Z 26004KT 210V300 15SM BKN020 OVC050 06/03 A2998 RMK
SC7SC1 TCU EMBD SLP173=
METAR CYKY 300300Z 24004KT 15SM -SHRA OVC020 06/04 A2999 RMK SC8 TCU
EMBD SLP179=
METAR CYKY 300200Z 30004KT 15SM -SHRA FEW030TCU OVC040 07/03 A3000
RMK TCU2SC6 SLP183=

CYKY - No TAF is issued for this station

Your time UTC time
Weather data provided by Environment Canada and NAV CANADA